createdAt,value
2019-04-16T00:00:56.272Z,62.85
2019-04-16T00:03:26.042Z,63.01
2019-04-16T00:05:58.909Z,62.99
2019-04-16T00:08:54.164Z,63.00
2019-04-16T00:11:33.286Z,63.03
2019-04-16T00:14:04.558Z,63.14
2019-04-16T00:16:34.345Z,63.08
2019-04-16T00:19:05.702Z,63.38
2019-04-16T00:21:41.247Z,63.44
2019-04-16T00:24:18.267Z,63.89
2019-04-16T00:26:45.747Z,64.18
2019-04-16T00:29:15.163Z,64.56
2019-04-16T00:31:46.288Z,64.58
2019-04-16T00:34:15.754Z,65.18
2019-04-16T00:36:48.405Z,65.18
2019-04-16T00:39:16.449Z,65.53
2019-04-16T00:41:45.911Z,65.74
2019-04-16T00:44:15.381Z,65.81
2019-04-16T00:46:45.016Z,65.92
2019-04-16T00:49:14.483Z,65.83
2019-04-16T00:51:43.932Z,65.75
2019-04-16T00:54:13.696Z,66.42
2019-04-16T00:56:43.611Z,66.62
2019-04-16T00:59:14.309Z,66.91
2019-04-16T01:01:43.793Z,67.26
2019-04-16T01:04:13.513Z,67.25
2019-04-16T01:06:43.533Z,68.01
2019-04-16T01:09:13.192Z,67.98
2019-04-16T01:11:42.729Z,68.49
2019-04-16T01:14:12.769Z,68.72
2019-04-16T01:16:42.491Z,68.61
2019-04-16T01:19:12.681Z,68.95
2019-04-16T01:21:44.786Z,68.92
2019-04-16T01:24:14.341Z,69.34
2019-04-16T01:26:44.090Z,69.07
2019-04-16T01:29:15.386Z,69.33
2019-04-16T01:32:02.690Z,69.72
2019-04-16T01:34:36.669Z,70.00
2019-04-16T01:37:20.162Z,69.82
2019-04-16T01:39:51.443Z,70.31
2019-04-16T01:42:23.682Z,70.42
2019-04-16T01:44:52.534Z,70.82
2019-04-16T01:47:21.996Z,70.84
2019-04-16T01:49:51.470Z,70.78
2019-04-16T01:52:20.944Z,71.39
2019-04-16T01:54:51.439Z,71.22
2019-04-16T01:57:21.619Z,71.42
2019-04-16T01:59:51.087Z,71.91
2019-04-16T02:02:20.600Z,72.02
2019-04-16T02:04:52.002Z,72.12
2019-04-16T02:07:21.595Z,72.52
2019-04-16T02:09:51.082Z,72.71
2019-04-16T02:12:20.524Z,72.52
2019-04-16T02:14:51.142Z,72.43
2019-04-16T02:17:20.715Z,72.74
2019-04-16T02:19:50.187Z,73.20
2019-04-16T02:22:19.670Z,73.47
2019-04-16T02:24:49.515Z,73.66
2019-04-16T02:27:19.005Z,73.36
2019-04-16T02:29:48.467Z,73.47
2019-04-16T02:32:17.946Z,73.44
2019-04-16T02:34:47.439Z,73.71
2019-04-16T02:37:16.885Z,73.74
2019-04-16T02:39:48.756Z,73.93
2019-04-16T02:42:18.049Z,74.24
2019-04-16T02:44:49.895Z,74.18
2019-04-16T02:47:18.973Z,74.19
2019-04-16T02:49:49.308Z,74.82
2019-04-16T02:52:20.396Z,75.79
2019-04-16T02:54:51.769Z,75.42
2019-04-16T02:57:37.817Z,75.68
2019-04-16T03:00:09.123Z,76.05
2019-04-16T03:02:40.705Z,76.16
2019-04-16T03:05:11.944Z,76.96
2019-04-16T03:07:41.356Z,76.94
2019-04-16T03:10:13.312Z,77.03
2019-04-16T03:12:42.046Z,77.42
2019-04-16T03:15:11.744Z,77.39
2019-04-16T03:17:43.673Z,77.23
2019-04-16T03:20:15.011Z,77.53
2019-04-16T03:22:44.442Z,77.47
2019-04-16T03:25:14.655Z,77.40
2019-04-16T03:27:44.231Z,77.90
2019-04-16T03:30:13.878Z,77.83
2019-04-16T03:32:51.022Z,77.74
2019-04-16T03:35:25.007Z,77.86
2019-04-16T03:37:51.745Z,77.96
2019-04-16T03:40:24.717Z,78.23
2019-04-16T03:42:52.386Z,78.24
2019-04-16T03:45:21.846Z,78.49
2019-04-16T03:47:52.351Z,78.58
2019-04-16T03:50:21.980Z,78.90
2019-04-16T03:52:51.503Z,78.99
2019-04-16T03:55:25.026Z,79.40
2019-04-16T03:57:52.169Z,79.59
2019-04-16T04:00:21.939Z,79.69
2019-04-16T04:02:55.169Z,79.72
2019-04-16T04:05:22.938Z,79.75
2019-04-16T04:07:55.213Z,80.12
2019-04-16T04:10:30.700Z,80.32
2019-04-16T04:12:55.326Z,80.27
2019-04-16T04:15:26.291Z,80.17
2019-04-16T04:17:56.131Z,80.44
2019-04-16T04:20:25.614Z,80.58
2019-04-16T04:22:57.040Z,80.74
2019-04-16T04:25:26.565Z,80.74
2019-04-16T04:27:56.644Z,80.88
2019-04-16T04:30:28.710Z,81.19
2019-04-16T04:32:57.767Z,81.08
2019-04-16T04:35:27.224Z,81.10
2019-04-16T04:37:56.695Z,81.23
2019-04-16T04:40:26.431Z,81.08
2019-04-16T04:42:57.676Z,80.94
2019-04-16T04:45:27.072Z,80.82
2019-04-16T04:47:56.555Z,80.34
2019-04-16T04:50:26.082Z,79.98
2019-04-16T04:52:55.565Z,79.67
2019-04-16T04:55:26.870Z,79.76
2019-04-16T04:57:56.214Z,79.84
2019-04-16T05:00:25.681Z,79.82
2019-04-16T05:02:55.183Z,79.45
2019-04-16T05:05:29.093Z,78.04
2019-04-16T05:07:59.967Z,77.15
2019-04-16T05:10:29.702Z,77.09
2019-04-16T05:12:59.178Z,76.43
2019-04-16T05:15:29.407Z,75.63
2019-04-16T05:17:59.491Z,74.89
2019-04-16T05:20:29.912Z,73.36
2019-04-16T05:22:59.736Z,71.58
2019-04-16T05:25:33.267Z,69.86
2019-04-16T05:28:00.689Z,68.45
2019-04-16T05:30:30.151Z,67.24
2019-04-16T05:33:04.870Z,66.66
2019-04-16T05:35:31.140Z,66.13
2019-04-16T05:38:00.653Z,65.07
2019-04-16T05:40:34.252Z,64.38
2019-04-16T05:43:01.270Z,64.05
2019-04-16T05:45:30.729Z,63.81
2019-04-16T05:48:00.239Z,63.18
2019-04-16T05:50:30.062Z,63.03
2019-04-16T05:52:59.552Z,62.09
2019-04-16T05:55:39.828Z,59.42
2019-04-16T05:58:09.282Z,58.77
2019-04-16T06:00:43.079Z,58.24
2019-04-16T06:03:12.579Z,57.31
2019-04-16T06:05:42.040Z,57.22
2019-04-16T06:08:11.916Z,55.48
2019-04-16T06:10:41.375Z,53.38
2019-04-16T06:13:15.527Z,52.35
2019-04-16T06:15:52.973Z,52.13
2019-04-16T06:18:38.053Z,49.63
2019-04-16T06:21:07.584Z,48.80
2019-04-16T06:23:48.381Z,44.35
2019-04-16T06:26:28.562Z,42.44
2019-04-16T06:29:00.151Z,42.18
2019-04-16T06:31:31.546Z,41.12
2019-04-16T06:34:02.666Z,41.68
2019-04-16T06:36:45.484Z,40.68
2019-04-16T06:39:19.840Z,39.01
2019-04-16T06:41:52.648Z,37.08
2019-04-16T06:44:23.956Z,35.66
2019-04-16T06:47:11.183Z,36.02
2019-04-16T06:49:51.180Z,35.84
2019-04-16T06:52:21.807Z,34.23
2019-04-16T06:55:00.464Z,34.15
2019-04-16T06:57:33.869Z,35.45
2019-04-16T07:00:10.718Z,33.20
2019-04-16T07:03:01.343Z,32.02
2019-04-16T07:05:22.747Z,34.54
2019-04-16T07:08:11.920Z,34.33
2019-04-16T07:10:45.718Z,32.24
2019-04-16T07:13:15.281Z,34.31
2019-04-16T07:15:44.742Z,35.05
2019-04-16T07:18:14.561Z,36.70
2019-04-16T07:20:45.654Z,35.23
2019-04-16T07:23:15.382Z,34.95
2019-04-16T07:25:45.353Z,32.16
2019-04-16T07:28:16.943Z,31.55
2019-04-16T07:31:04.466Z,29.84
2019-04-16T07:33:52.008Z,30.79
2019-04-16T07:36:38.340Z,32.09
2019-04-16T07:39:28.779Z,31.40
2019-04-16T07:42:11.789Z,32.33
2019-04-16T07:44:46.043Z,30.56
2019-04-16T07:47:19.821Z,29.33
2019-04-16T07:50:01.961Z,27.17
2019-04-16T07:52:35.930Z,26.83
2019-04-16T07:55:26.573Z,28.65
2019-04-16T07:57:55.804Z,29.87
2019-04-16T08:00:25.523Z,28.76
2019-04-16T08:02:54.988Z,29.86
2019-04-16T08:05:27.609Z,30.85
2019-04-16T08:07:55.733Z,30.07
2019-04-16T08:10:25.200Z,27.89
2019-04-16T08:12:57.235Z,27.72
2019-04-16T08:15:27.960Z,27.54
2019-04-16T08:17:57.716Z,28.55
2019-04-16T08:20:27.269Z,27.73
2019-04-16T08:22:58.387Z,27.51
2019-04-16T08:25:33.639Z,27.77
2019-04-16T08:28:01.031Z,27.33
2019-04-16T08:30:34.559Z,26.44
2019-04-16T08:33:01.658Z,26.52
2019-04-16T08:35:33.573Z,26.87
2019-04-16T08:38:03.623Z,26.25
2019-04-16T08:40:33.090Z,27.14
2019-04-16T08:43:02.659Z,26.79
2019-04-16T08:45:32.106Z,27.08
2019-04-16T08:48:02.170Z,26.64
2019-04-16T08:50:31.658Z,25.91
2019-04-16T08:53:01.137Z,25.99
2019-04-16T08:55:30.615Z,27.47
2019-04-16T08:58:00.265Z,28.44
2019-04-16T09:00:30.507Z,27.76
2019-04-16T09:03:00.018Z,29.11
2019-04-16T09:05:29.477Z,26.96
2019-04-16T09:08:11.912Z,26.00
2019-04-16T09:10:31.760Z,25.73
2019-04-16T09:13:05.680Z,24.81
2019-04-16T09:15:37.023Z,25.19
2019-04-16T09:18:26.481Z,27.87
2019-04-16T09:20:55.935Z,25.74
2019-04-16T09:23:26.682Z,24.18
2019-04-16T09:26:18.620Z,23.20
2019-04-16T09:29:03.799Z,23.21
2019-04-16T09:31:38.598Z,26.01
2019-04-16T09:34:10.915Z,26.00
2019-04-16T09:36:50.750Z,24.95
2019-04-16T09:39:27.387Z,24.58
2019-04-16T09:41:56.857Z,23.22
2019-04-16T09:44:29.722Z,24.30
2019-04-16T09:46:59.872Z,25.98
2019-04-16T09:49:30.631Z,22.83
2019-04-16T09:52:00.121Z,23.59
2019-04-16T09:54:29.602Z,24.76
2019-04-16T09:56:59.729Z,24.73
2019-04-16T09:59:31.580Z,24.30
2019-04-16T10:02:02.982Z,24.78
2019-04-16T10:04:32.888Z,24.02
2019-04-16T10:07:02.354Z,23.76
2019-04-16T10:09:31.838Z,21.81
2019-04-16T10:12:01.570Z,21.59
2019-04-16T10:14:31.121Z,21.91
2019-04-16T10:17:00.580Z,23.61
2019-04-16T10:19:30.286Z,22.57
2019-04-16T10:21:59.970Z,21.52
2019-04-16T10:24:47.570Z,22.05
2019-04-16T10:27:18.896Z,22.84
2019-04-16T10:29:48.624Z,22.60
2019-04-16T10:32:18.781Z,22.97
2019-04-16T10:34:48.357Z,24.39
2019-04-16T10:37:17.821Z,23.99
2019-04-16T10:39:48.945Z,22.44
2019-04-16T10:42:20.073Z,22.54
2019-04-16T10:45:03.507Z,21.97
2019-04-16T10:47:46.563Z,22.33
2019-04-16T10:50:34.222Z,22.33
2019-04-16T10:53:05.322Z,22.30
2019-04-16T10:55:36.497Z,21.13
2019-04-16T10:58:23.767Z,19.74
2019-04-16T11:01:01.713Z,20.08
2019-04-16T11:03:49.427Z,20.80
2019-04-16T11:06:23.269Z,21.33
2019-04-16T11:08:52.851Z,22.00
2019-04-16T11:11:22.317Z,22.75
2019-04-16T11:14:00.160Z,21.17
2019-04-16T11:16:24.166Z,19.96
2019-04-16T11:18:55.093Z,19.68
2019-04-16T11:21:24.875Z,19.10
2019-04-16T11:23:54.648Z,18.82
2019-04-16T11:26:24.449Z,18.88
2019-04-16T11:28:53.944Z,20.92
2019-04-16T11:31:25.048Z,19.63
2019-04-16T11:33:54.580Z,19.89
2019-04-16T11:36:24.077Z,20.37
2019-04-16T11:38:53.545Z,20.87
2019-04-16T11:41:23.377Z,20.03
2019-04-16T11:43:52.846Z,20.58
2019-04-16T11:46:22.277Z,20.11
2019-04-16T11:48:51.788Z,18.88
2019-04-16T11:51:21.280Z,20.24
2019-04-16T11:53:50.772Z,19.75
2019-04-16T11:56:22.466Z,20.30
2019-04-16T11:58:51.492Z,21.70
2019-04-16T12:01:28.008Z,20.47
2019-04-16T12:04:15.634Z,20.24
2019-04-16T12:07:05.583Z,20.17
2019-04-16T12:09:35.902Z,20.59
2019-04-16T12:12:06.996Z,20.42
2019-04-16T12:14:47.348Z,20.87
2019-04-16T12:17:21.663Z,20.91
2019-04-16T12:20:09.025Z,20.87
2019-04-16T12:22:45.907Z,19.16
2019-04-16T12:25:23.064Z,20.93
2019-04-16T12:27:54.299Z,20.83
2019-04-16T12:30:41.377Z,19.75
2019-04-16T12:33:18.654Z,18.36
2019-04-16T12:35:55.632Z,19.12
2019-04-16T12:38:29.639Z,19.65
2019-04-16T12:41:01.065Z,19.06
2019-04-16T12:43:32.199Z,20.92
2019-04-16T12:46:03.242Z,19.98
2019-04-16T12:48:36.829Z,19.43
2019-04-16T12:51:16.552Z,19.30
2019-04-16T12:53:52.912Z,19.37
2019-04-16T12:56:26.394Z,17.97
2019-04-16T12:59:12.935Z,18.51
2019-04-16T13:01:44.102Z,19.24
2019-04-16T13:04:31.025Z,20.23
2019-04-16T13:07:04.827Z,21.02
2019-04-16T13:09:35.959Z,20.85
2019-04-16T13:12:23.328Z,20.83
2019-04-16T13:15:09.840Z,20.93
2019-04-16T13:17:55.951Z,21.40
2019-04-16T13:20:43.497Z,20.40
2019-04-16T13:23:31.542Z,20.26
2019-04-16T13:26:13.298Z,19.76
2019-04-16T13:28:43.272Z,20.99
2019-04-16T13:31:13.524Z,19.84
2019-04-16T13:33:43.561Z,20.12
2019-04-16T13:36:14.215Z,21.96
2019-04-16T13:38:48.600Z,22.51
2019-04-16T13:41:18.071Z,23.92
2019-04-16T13:44:09.010Z,24.46
2019-04-16T13:46:37.248Z,24.94
2019-04-16T13:49:17.088Z,25.30
2019-04-16T13:51:47.771Z,25.07
2019-04-16T13:54:22.781Z,24.24
2019-04-16T13:56:53.915Z,25.38
2019-04-16T13:59:41.586Z,26.08
2019-04-16T14:02:17.436Z,23.79
2019-04-16T14:04:43.888Z,24.25
2019-04-16T14:07:13.643Z,23.97
2019-04-16T14:09:44.399Z,24.28
2019-04-16T14:12:13.993Z,23.48
2019-04-16T14:14:43.459Z,23.40
2019-04-16T14:17:17.606Z,23.04
2019-04-16T14:19:47.121Z,23.98
2019-04-16T14:22:21.641Z,24.66
2019-04-16T14:24:47.752Z,24.18
2019-04-16T14:27:17.236Z,24.67
2019-04-16T14:29:46.725Z,24.91
2019-04-16T14:32:16.209Z,25.74
2019-04-16T14:34:47.369Z,25.72
2019-04-16T14:37:17.022Z,25.77
2019-04-16T14:39:51.229Z,26.22
2019-04-16T14:42:22.252Z,24.78
2019-04-16T14:44:59.202Z,26.57
2019-04-16T14:47:29.950Z,25.22
2019-04-16T14:49:59.840Z,26.24
2019-04-16T14:52:29.324Z,26.50
2019-04-16T14:55:03.122Z,26.57
2019-04-16T14:57:32.661Z,26.54
2019-04-16T15:00:19.972Z,25.40
2019-04-16T15:02:51.098Z,26.11
2019-04-16T15:05:22.211Z,26.06
2019-04-16T15:07:59.917Z,25.89
2019-04-16T15:10:31.343Z,26.27
2019-04-16T15:13:02.791Z,27.28
2019-04-16T15:15:34.184Z,26.58
2019-04-16T15:18:14.237Z,25.81
2019-04-16T15:21:03.659Z,26.59
2019-04-16T15:23:43.526Z,26.82
2019-04-16T15:26:23.381Z,26.03
2019-04-16T15:28:57.145Z,26.28
2019-04-16T15:31:34.267Z,25.79
2019-04-16T15:34:14.148Z,25.96
2019-04-16T15:36:50.573Z,25.98
2019-04-16T15:39:21.089Z,27.00
2019-04-16T15:42:08.639Z,26.28
2019-04-16T15:44:42.638Z,26.37
2019-04-16T15:47:31.860Z,27.84
2019-04-16T15:50:02.057Z,27.92
2019-04-16T15:52:48.227Z,27.54
2019-04-16T15:55:37.340Z,27.77
2019-04-16T15:58:11.133Z,26.82
2019-04-16T16:00:58.661Z,26.89
2019-04-16T16:03:44.916Z,27.74
2019-04-16T16:06:22.421Z,27.49
2019-04-16T16:08:56.867Z,27.96
2019-04-16T16:11:27.965Z,27.90
2019-04-16T16:14:00.387Z,29.36
2019-04-16T16:16:41.135Z,29.41
2019-04-16T16:18:59.795Z,29.04
2019-04-16T16:21:29.302Z,29.12
2019-04-16T16:23:59.034Z,29.08
2019-04-16T16:26:28.505Z,29.03
2019-04-16T16:28:57.970Z,29.19
2019-04-16T16:31:31.346Z,28.89
2019-04-16T16:33:58.628Z,29.81
2019-04-16T16:36:28.114Z,30.09
2019-04-16T16:38:57.559Z,30.14
2019-04-16T16:41:27.031Z,30.00
2019-04-16T16:43:56.533Z,30.07
2019-04-16T16:46:56.028Z,29.89
2019-04-16T16:49:15.671Z,29.43
2019-04-16T16:51:57.457Z,30.88
2019-04-16T16:54:28.019Z,30.48
2019-04-16T16:57:17.202Z,30.60
2019-04-16T17:00:00.355Z,30.72
2019-04-16T17:02:36.004Z,31.15
2019-04-16T17:05:08.553Z,30.68
2019-04-16T17:07:38.091Z,30.50
2019-04-16T17:10:09.596Z,31.30
2019-04-16T17:12:39.047Z,31.29
2019-04-16T17:15:09.435Z,31.25
2019-04-16T17:17:39.210Z,31.07
2019-04-16T17:20:08.770Z,31.67
2019-04-16T17:22:40.679Z,32.11
2019-04-16T17:25:11.957Z,32.65
2019-04-16T17:27:51.156Z,33.01
2019-04-16T17:30:12.143Z,32.83
2019-04-16T17:32:41.597Z,33.21
2019-04-16T17:35:15.564Z,33.42
2019-04-16T17:37:42.246Z,33.60
2019-04-16T17:40:30.243Z,33.44
2019-04-16T17:43:01.348Z,34.66
2019-04-16T17:45:32.814Z,35.22
2019-04-16T17:48:09.766Z,34.59
2019-04-16T17:50:41.067Z,35.42
2019-04-16T17:53:28.748Z,35.42
2019-04-16T17:56:16.478Z,35.33
2019-04-16T17:58:56.509Z,35.16
2019-04-16T18:01:40.375Z,35.16
2019-04-16T18:04:13.132Z,35.31
2019-04-16T18:06:47.163Z,36.25
2019-04-16T18:09:18.257Z,35.67
2019-04-16T18:12:05.353Z,35.81
2019-04-16T18:14:52.776Z,36.26
2019-04-16T18:17:46.277Z,36.05
2019-04-16T18:20:08.490Z,36.80
2019-04-16T18:22:45.798Z,36.54
2019-04-16T18:25:21.371Z,37.09
2019-04-16T18:27:52.610Z,36.71
2019-04-16T18:30:41.844Z,37.21
2019-04-16T18:33:14.774Z,37.72
2019-04-16T18:35:45.842Z,37.21
2019-04-16T18:38:31.953Z,37.28
2019-04-16T18:41:11.872Z,37.51
2019-04-16T18:43:48.665Z,37.69
2019-04-16T18:46:19.792Z,38.55
2019-04-16T18:48:54.296Z,38.26
2019-04-16T18:51:24.038Z,39.17
2019-04-16T18:53:53.690Z,38.89
2019-04-16T18:56:23.244Z,39.10
2019-04-16T18:58:53.060Z,38.61
2019-04-16T19:01:29.705Z,38.97
2019-04-16T19:03:58.921Z,38.62
2019-04-16T19:06:28.358Z,38.72
2019-04-16T19:08:57.836Z,38.04
2019-04-16T19:11:27.366Z,38.33
2019-04-16T19:13:57.360Z,38.03
2019-04-16T19:16:26.812Z,38.39
2019-04-16T19:18:56.307Z,38.72
2019-04-16T19:21:25.806Z,39.31
2019-04-16T19:23:55.309Z,39.50
2019-04-16T19:26:24.773Z,39.67
2019-04-16T19:28:54.312Z,40.33
2019-04-16T19:31:23.943Z,40.51
2019-04-16T19:33:53.432Z,40.51
2019-04-16T19:36:27.227Z,42.59
2019-04-16T19:38:54.099Z,41.61
2019-04-16T19:41:24.551Z,42.03
2019-04-16T19:43:54.132Z,40.95
2019-04-16T19:46:23.595Z,41.20
2019-04-16T19:48:53.310Z,42.06
2019-04-16T19:51:22.778Z,42.20
2019-04-16T19:53:52.235Z,42.10
2019-04-16T19:56:21.762Z,41.70
2019-04-16T19:58:51.229Z,42.90
2019-04-16T20:01:20.685Z,42.76
2019-04-16T20:03:50.151Z,43.66
2019-04-16T20:06:22.714Z,44.77
2019-04-16T20:08:50.954Z,45.34
2019-04-16T20:11:21.604Z,45.86
2019-04-16T20:13:51.190Z,45.21
2019-04-16T20:16:20.645Z,46.54
2019-04-16T20:18:51.525Z,45.12
2019-04-16T20:21:21.143Z,46.02
2019-04-16T20:23:50.618Z,45.37
2019-04-16T20:26:20.078Z,46.05
2019-04-16T20:28:49.835Z,47.71
2019-04-16T20:31:19.288Z,46.92
2019-04-16T20:33:48.757Z,47.89
2019-04-16T20:36:22.484Z,47.49
2019-04-16T20:38:49.393Z,47.23
2019-04-16T20:41:19.276Z,49.22
2019-04-16T20:43:48.762Z,48.77
2019-04-16T20:46:18.221Z,48.62
2019-04-16T20:48:47.676Z,49.00
2019-04-16T20:51:17.204Z,49.23
2019-04-16T20:53:46.668Z,48.89
2019-04-16T20:56:20.041Z,49.04
2019-04-16T20:58:47.302Z,50.79
2019-04-16T21:01:32.988Z,50.97
2019-04-16T21:04:05.071Z,50.16
2019-04-16T21:06:29.999Z,50.19
2019-04-16T21:08:59.491Z,50.57
2019-04-16T21:11:29.256Z,50.15
2019-04-16T21:13:59.795Z,52.08
2019-04-16T21:16:33.521Z,51.68
2019-04-16T21:19:00.853Z,50.96
2019-04-16T21:21:30.307Z,50.89
2019-04-16T21:23:59.775Z,50.31
2019-04-16T21:26:29.233Z,51.83
2019-04-16T21:29:06.333Z,52.03
2019-04-16T21:31:42.349Z,51.89
2019-04-16T21:34:24.977Z,51.67
2019-04-16T21:37:11.821Z,52.18
2019-04-16T21:39:51.368Z,50.75
2019-04-16T21:42:20.147Z,51.36
2019-04-16T21:44:49.616Z,51.49
2019-04-16T21:47:23.268Z,52.04
2019-04-16T21:49:50.511Z,51.16
2019-04-16T21:52:23.082Z,52.05
2019-04-16T21:54:51.307Z,51.57
2019-04-16T21:57:20.760Z,50.93
2019-04-16T21:59:56.734Z,51.41
2019-04-16T22:02:23.069Z,50.74
2019-04-16T22:04:52.710Z,51.54
2019-04-16T22:07:24.682Z,52.29
2019-04-16T22:09:53.375Z,51.08
2019-04-16T22:12:22.861Z,52.75
2019-04-16T22:14:54.216Z,51.23
2019-04-16T22:17:23.631Z,51.06
2019-04-16T22:19:54.643Z,51.17
2019-04-16T22:22:27.310Z,51.87
2019-04-16T22:24:56.077Z,52.10
2019-04-16T22:27:25.862Z,51.73
2019-04-16T22:29:55.331Z,52.67
2019-04-16T22:32:26.988Z,52.05
2019-04-16T22:34:56.298Z,51.71
2019-04-16T22:37:25.804Z,51.26
2019-04-16T22:40:00.034Z,52.13
2019-04-16T22:42:31.400Z,51.36
2019-04-16T22:45:08.032Z,53.72
2019-04-16T22:47:39.157Z,53.44
2019-04-16T22:50:16.068Z,51.51
2019-04-16T22:52:41.667Z,51.51
2019-04-16T22:55:11.149Z,51.07
2019-04-16T22:57:40.682Z,51.90
2019-04-16T23:00:13.089Z,52.66
2019-04-16T23:02:42.732Z,51.84
2019-04-16T23:05:13.759Z,53.22
2019-04-16T23:07:43.214Z,51.78
2019-04-16T23:10:12.924Z,52.81
2019-04-16T23:12:42.381Z,52.99
2019-04-16T23:15:13.293Z,54.52
2019-04-16T23:17:45.796Z,53.17
2019-04-16T23:20:28.464Z,53.65
2019-04-16T23:22:46.545Z,53.52
2019-04-16T23:25:16.343Z,52.96
2019-04-16T23:27:45.812Z,53.46
2019-04-16T23:30:15.756Z,53.08
2019-04-16T23:32:46.482Z,53.41
2019-04-16T23:35:15.961Z,52.78
2019-04-16T23:37:45.419Z,52.59
2019-04-16T23:40:14.871Z,53.79
2019-04-16T23:42:47.478Z,52.66
2019-04-16T23:45:37.232Z,53.79
2019-04-16T23:48:08.316Z,52.99
2019-04-16T23:50:45.109Z,53.49
2019-04-16T23:53:15.475Z,53.31
2019-04-16T23:56:03.578Z,52.97
2019-04-16T23:58:37.625Z,54.27
